Time;durP1;ratioP1;P1;durP2;ratioP2;P2;SDS_P1;SDS_P2;PMS_P1;PMS_P2;Temp;Humidity;BMP_temperature;BMP_pressure;BME280_temperature;BME280_humidity;BME280_pressure;Samples;Min_cycle;Max_cycle;Signal;HPM_P1;HPM_P2
2024/02/12 00:00:18;;;;;;;1.38;0.70;;;;;;;;;;5026864;28;20029;-72
2024/02/12 00:02:47;;;;;;;2.42;0.80;;;;;;;;;;5025390;28;20034;-72
2024/02/12 00:05:12;;;;;;;1.92;1.00;;;;;;;;;;5026551;28;20236;-71
2024/02/12 00:07:39;;;;;;;2.05;1.05;;;;;;;;;;5026303;28;20604;-72
2024/02/12 00:10:05;;;;;;;1.65;0.80;;;;;;;;;;5027035;28;20679;-71
2024/02/12 00:12:33;;;;;;;1.73;0.80;;;;;;;;;;5026789;28;20171;-72
2024/02/12 00:15:01;;;;;;;1.48;0.80;;;;;;;;;;5025837;28;20025;-72
2024/02/12 00:17:29;;;;;;;2.65;0.90;;;;;;;;;;5027454;28;20053;-73
2024/02/12 00:19:55;;;;;;;1.65;0.82;;;;;;;;;;5025722;28;20515;-73
2024/02/12 00:22:20;;;;;;;1.27;0.73;;;;;;;;;;5026051;28;20052;-72
2024/02/12 00:24:46;;;;;;;1.40;0.68;;;;;;;;;;5026457;28;20372;-73
2024/02/12 00:27:11;;;;;;;2.55;0.80;;;;;;;;;;5026964;28;20112;-72
2024/02/12 00:29:37;;;;;;;2.28;0.80;;;;;;;;;;5027319;28;20045;-72
2024/02/12 00:32:03;;;;;;;1.58;0.68;;;;;;;;;;5026580;28;20470;-72
2024/02/12 00:34:28;;;;;;;1.85;0.90;;;;;;;;;;5026605;28;20037;-72
2024/02/12 00:36:54;;;;;;;1.33;0.70;;;;;;;;;;5025392;28;20069;-73
2024/02/12 00:39:20;;;;;;;2.40;0.60;;;;;;;;;;5027111;28;20034;-72
2024/02/12 00:41:49;;;;;;;1.50;0.80;;;;;;;;;;5027007;28;20030;-72
2024/02/12 00:44:14;;;;;;;2.20;0.80;;;;;;;;;;5027532;28;20033;-72
2024/02/12 00:46:40;;;;;;;2.33;0.90;;;;;;;;;;5027204;28;20648;-72
2024/02/12 00:49:06;;;;;;;1.58;0.73;;;;;;;;;;5024071;28;20095;-72
2024/02/12 00:51:32;;;;;;;1.77;0.82;;;;;;;;;;5023059;28;20048;-72
2024/02/12 00:53:58;;;;;;;2.03;0.80;;;;;;;;;;5027099;28;20035;-71
2024/02/12 00:56:24;;;;;;;1.58;0.80;;;;;;;;;;5030226;28;20109;-72
2024/02/12 00:58:49;;;;;;;1.20;0.65;;;;;;;;;;5024914;28;20125;-72
2024/02/12 01:01:15;;;;;;;1.92;0.80;;;;;;;;;;5031784;28;20474;-71
2024/02/12 01:03:40;;;;;;;1.55;0.77;;;;;;;;;;5029620;28;20185;-72
2024/02/12 01:06:05;;;;;;;1.90;0.70;;;;;;;;;;5035610;28;20037;-74
2024/02/12 01:08:31;;;;;;;2.38;1.00;;;;;;;;;;5030762;28;20493;-72
2024/02/12 01:10:56;;;;;;;2.63;0.80;;;;;;;;;;5018931;28;20051;-72
2024/02/12 01:13:21;;;;;;;1.55;0.75;;;;;;;;;;5028760;28;20029;-71
2024/02/12 01:15:49;;;;;;;1.40;0.50;;;;;;;;;;5029890;28;20423;-71
2024/02/12 01:18:15;;;;;;;1.52;0.70;;;;;;;;;;5030909;28;20132;-71
2024/02/12 01:20:40;;;;;;;1.02;0.45;;;;;;;;;;5031312;28;20042;-73
2024/02/12 01:23:06;;;;;;;1.55;0.60;;;;;;;;;;5031596;28;20514;-72
2024/02/12 01:25:32;;;;;;;1.25;0.60;;;;;;;;;;5038067;28;20040;-72
2024/02/12 01:28:00;;;;;;;1.10;0.40;;;;;;;;;;5030062;28;20511;-72
2024/02/12 01:30:26;;;;;;;1.52;0.70;;;;;;;;;;5035348;28;20037;-69
2024/02/12 01:32:52;;;;;;;1.35;0.50;;;;;;;;;;5037783;28;20038;-72
2024/02/12 01:35:17;;;;;;;1.55;0.60;;;;;;;;;;5037807;28;20072;-72
2024/02/12 01:37:42;;;;;;;1.50;0.70;;;;;;;;;;5040411;28;20045;-71
2024/02/12 01:40:08;;;;;;;1.25;0.50;;;;;;;;;;5043482;28;20052;-70
2024/02/12 01:42:34;;;;;;;2.17;0.55;;;;;;;;;;5035352;28;20048;-72
2024/02/12 01:45:04;;;;;;;1.98;0.60;;;;;;;;;;5030112;28;20582;-72
2024/02/12 01:47:33;;;;;;;;;;;;;;;;;;5030898;28;20132;-72
2024/02/12 01:49:58;;;;;;;1.63;0.50;;;;;;;;;;5029061;28;19913;-70
2024/02/12 01:52:26;;;;;;;1.02;0.47;;;;;;;;;;5029240;28;20045;-72
2024/02/12 01:55:02;;;;;;;0.88;0.50;;;;;;;;;;5031306;28;20037;-71
2024/02/12 01:57:29;;;;;;;1.20;0.60;;;;;;;;;;5032265;28;20061;-72
2024/02/12 01:59:54;;;;;;;1.10;0.43;;;;;;;;;;5012967;28;20034;-71
2024/02/12 02:02:20;;;;;;;1.60;0.60;;;;;;;;;;5029584;28;20033;-72
2024/02/12 02:04:54;;;;;;;1.23;0.50;;;;;;;;;;5029376;28;20570;-72
2024/02/12 02:07:20;;;;;;;1.02;0.50;;;;;;;;;;5031497;28;20037;-72
2024/02/12 02:09:46;;;;;;;1.98;0.60;;;;;;;;;;5030435;28;20092;-72
2024/02/12 02:12:12;;;;;;;1.17;0.40;;;;;;;;;;5031040;28;20527;-72
2024/02/12 02:14:37;;;;;;;1.15;0.47;;;;;;;;;;5027704;28;20053;-72
2024/02/12 02:17:05;;;;;;;1.20;0.60;;;;;;;;;;5011453;28;20080;-72
2024/02/12 02:19:30;;;;;;;1.27;0.40;;;;;;;;;;5028205;28;20106;-72
2024/02/12 02:21:55;;;;;;;1.08;0.40;;;;;;;;;;5029864;28;20065;-72
2024/02/12 02:24:20;;;;;;;0.80;0.40;;;;;;;;;;5028598;28;20061;-72
2024/02/12 02:26:46;;;;;;;1.55;0.65;;;;;;;;;;5040743;28;20069;-72
2024/02/12 02:29:12;;;;;;;1.40;0.63;;;;;;;;;;5029648;28;20033;-72
2024/02/12 02:31:38;;;;;;;1.77;0.50;;;;;;;;;;5030731;28;20076;-73
2024/02/12 02:34:03;;;;;;;1.30;0.60;;;;;;;;;;5029405;28;20152;-72
2024/02/12 02:36:28;;;;;;;1.17;0.60;;;;;;;;;;5028990;28;20531;-72
2024/02/12 02:38:54;;;;;;;0.85;0.47;;;;;;;;;;5029667;28;20045;-72
2024/02/12 02:41:19;;;;;;;0.88;0.30;;;;;;;;;;5030320;28;20029;-72
2024/02/12 02:43:44;;;;;;;0.90;0.43;;;;;;;;;;5030378;28;20504;-72
2024/02/12 02:46:10;;;;;;;1.10;0.50;;;;;;;;;;5028729;28;20199;-72
2024/02/12 02:48:35;;;;;;;0.88;0.40;;;;;;;;;;5028726;28;20029;-71
2024/02/12 02:51:01;;;;;;;1.50;0.57;;;;;;;;;;5026842;28;20119;-69
2024/02/12 02:53:26;;;;;;;1.00;0.55;;;;;;;;;;5027080;28;20535;-71
2024/02/12 02:55:51;;;;;;;1.50;0.60;;;;;;;;;;5029145;28;20036;-72
2024/02/12 02:58:17;;;;;;;1.13;0.50;;;;;;;;;;5032501;28;20040;-73
2024/02/12 03:00:42;;;;;;;1.25;0.60;;;;;;;;;;5033571;28;20025;-72
2024/02/12 03:03:08;;;;;;;1.00;0.32;;;;;;;;;;5032755;28;20119;-72
2024/02/12 03:05:34;;;;;;;1.55;0.50;;;;;;;;;;5029495;28;20021;-73
2024/02/12 03:08:06;;;;;;;1.75;0.50;;;;;;;;;;5010235;28;20029;-73
2024/02/12 03:10:31;;;;;;;1.15;0.40;;;;;;;;;;5022311;28;20509;-74
2024/02/12 03:12:57;;;;;;;1.02;0.50;;;;;;;;;;5029765;28;20034;-71
2024/02/12 03:15:22;;;;;;;0.90;0.30;;;;;;;;;;5029025;28;20104;-72
2024/02/12 03:17:48;;;;;;;1.50;0.50;;;;;;;;;;5029975;28;20061;-73
2024/02/12 03:20:13;;;;;;;1.05;0.45;;;;;;;;;;5018771;28;20021;-72
2024/02/12 03:22:42;;;;;;;1.80;0.60;;;;;;;;;;5037156;28;20025;-71
2024/02/12 03:25:08;;;;;;;1.45;0.40;;;;;;;;;;5036569;28;20027;-71
2024/02/12 03:27:34;;;;;;;0.93;0.40;;;;;;;;;;5036081;28;20057;-73
2024/02/12 03:29:59;;;;;;;0.85;0.40;;;;;;;;;;5038771;28;20515;-72
2024/02/12 03:32:24;;;;;;;1.95;0.50;;;;;;;;;;5035938;28;20057;-72
2024/02/12 03:34:50;;;;;;;0.55;0.30;;;;;;;;;;5029274;28;20052;-72
2024/02/12 03:37:19;;;;;;;1.50;0.60;;;;;;;;;;5041703;28;20049;-71
2024/02/12 03:39:45;;;;;;;1.15;0.60;;;;;;;;;;5041882;28;20033;-73
2024/02/12 03:42:10;;;;;;;1.00;0.30;;;;;;;;;;5024261;28;20047;-72
2024/02/12 03:44:35;;;;;;;1.05;0.45;;;;;;;;;;5039607;28;20120;-72
2024/02/12 03:47:03;;;;;;;0.70;0.40;;;;;;;;;;5040850;28;20037;-72
2024/02/12 04:00:24;;;;;;;0.93;0.30;;;;;;;;;;5027350;28;20043;-72
2024/02/12 04:02:50;;;;;;;1.45;0.40;;;;;;;;;;5027348;28;20041;-72
2024/02/12 04:05:17;;;;;;;0.90;0.30;;;;;;;;;;5025798;28;20120;-71
2024/02/12 04:07:43;;;;;;;1.45;0.50;;;;;;;;;;5026080;28;20029;-71
2024/02/12 04:10:10;;;;;;;2.22;0.52;;;;;;;;;;5027998;28;20044;-72
2024/02/12 04:12:36;;;;;;;1.02;0.40;;;;;;;;;;5043490;28;20068;-71
2024/02/12 04:15:01;;;;;;;0.73;0.35;;;;;;;;;;5026664;28;20060;-71
2024/02/12 04:17:28;;;;;;;1.50;0.52;;;;;;;;;;5007668;28;20507;-70
2024/02/12 04:19:54;;;;;;;0.98;0.38;;;;;;;;;;5018413;28;20043;-70
2024/02/12 04:22:20;;;;;;;1.23;0.40;;;;;;;;;;5027080;28;20108;-71
2024/02/12 04:24:46;;;;;;;0.98;0.43;;;;;;;;;;5025556;28;20447;-70
2024/02/12 04:27:11;;;;;;;1.38;0.60;;;;;;;;;;5008826;28;20117;-71
2024/02/12 04:29:38;;;;;;;1.13;0.50;;;;;;;;;;5026830;28;20044;-71
2024/02/12 04:32:08;;;;;;;1.63;0.43;;;;;;;;;;5014440;28;20038;-72
2024/02/12 04:34:34;;;;;;;1.38;0.35;;;;;;;;;;5025833;28;20038;-73
2024/02/12 04:37:00;;;;;;;1.13;0.30;;;;;;;;;;5024496;28;20099;-70
2024/02/12 04:39:26;;;;;;;1.05;0.40;;;;;;;;;;5024945;28;20546;-70
2024/02/12 04:41:51;;;;;;;2.13;0.40;;;;;;;;;;5026895;28;20038;-70
2024/02/12 04:44:17;;;;;;;1.60;0.38;;;;;;;;;;5027386;28;20048;-69
2024/02/12 04:46:42;;;;;;;1.77;0.45;;;;;;;;;;5025278;28;20521;-68
2024/02/12 04:49:09;;;;;;;0.80;0.28;;;;;;;;;;5024086;28;20045;-70
2024/02/12 04:51:37;;;;;;;0.35;0.25;;;;;;;;;;5022619;28;20038;-69
2024/02/12 04:54:02;;;;;;;0.50;0.22;;;;;;;;;;5024970;28;20045;-70
2024/02/12 04:56:27;;;;;;;0.80;0.30;;;;;;;;;;5016760;28;20040;-70
2024/02/12 04:58:55;;;;;;;0.90;0.40;;;;;;;;;;5025156;28;20056;-68
2024/02/12 05:01:21;;;;;;;1.00;0.28;;;;;;;;;;5003794;28;20045;-69
2024/02/12 05:03:46;;;;;;;0.68;0.35;;;;;;;;;;5024426;28;20030;-69
2024/02/12 05:06:17;;;;;;;1.83;0.50;;;;;;;;;;5025482;28;20044;-70
2024/02/12 05:08:43;;;;;;;2.15;0.40;;;;;;;;;;5021705;28;20088;-69
2024/02/12 05:11:08;;;;;;;1.05;0.50;;;;;;;;;;5017106;28;20030;-69
2024/02/12 05:13:34;;;;;;;2.10;0.32;;;;;;;;;;5022464;28;20033;-69
2024/02/12 05:16:01;;;;;;;1.15;0.40;;;;;;;;;;5023871;28;20049;-70
2024/02/12 05:23:56;;;;;;;2.42;0.50;;;;;;;;;;5026611;28;20269;-68
2024/02/12 05:26:21;;;;;;;3.67;0.60;;;;;;;;;;5022934;28;20124;-68
2024/02/12 05:28:47;;;;;;;2.80;0.50;;;;;;;;;;5031569;28;20534;-68
2024/02/12 05:31:13;;;;;;;2.42;0.60;;;;;;;;;;5021155;28;20029;-68
2024/02/12 05:33:38;;;;;;;1.98;0.50;;;;;;;;;;5024891;28;20037;-68
2024/02/12 05:36:05;;;;;;;4.65;0.68;;;;;;;;;;5024249;28;20407;-68
2024/02/12 05:38:30;;;;;;;1.65;0.50;;;;;;;;;;5028653;28;20542;-68
2024/02/12 05:40:56;;;;;;;1.80;0.40;;;;;;;;;;5019293;28;20022;-71
2024/02/12 05:43:21;;;;;;;4.97;1.08;;;;;;;;;;5024797;28;20409;-67
2024/02/12 05:45:46;;;;;;;9.35;0.68;;;;;;;;;;5028742;28;20030;-67
2024/02/12 05:48:12;;;;;;;4.68;0.60;;;;;;;;;;5024744;28;20135;-66
2024/02/12 05:50:37;;;;;;;5.03;0.77;;;;;;;;;;5027932;28;20034;-68
2024/02/12 05:53:02;;;;;;;5.05;0.68;;;;;;;;;;5023630;28;20112;-65
2024/02/12 05:55:28;;;;;;;3.45;0.60;;;;;;;;;;5024315;28;20057;-65
2024/02/12 05:57:53;;;;;;;3.58;0.52;;;;;;;;;;5025002;28;20048;-67
2024/02/12 06:00:18;;;;;;;4.45;0.65;;;;;;;;;;5023500;28;20117;-68
2024/02/12 06:02:44;;;;;;;3.30;0.60;;;;;;;;;;5023438;28;20038;-67
2024/02/12 06:05:09;;;;;;;2.38;0.70;;;;;;;;;;5019820;28;20094;-67
2024/02/12 06:07:34;;;;;;;3.20;1.30;;;;;;;;;;5025408;28;20107;-67
2024/02/12 06:10:00;;;;;;;3.72;0.80;;;;;;;;;;5024505;28;20048;-68
2024/02/12 06:12:25;;;;;;;10.25;0.73;;;;;;;;;;5027293;28;20033;-67
2024/02/12 06:14:50;;;;;;;4.63;0.80;;;;;;;;;;5025632;28;20836;-67
2024/02/12 06:17:18;;;;;;;6.68;1.00;;;;;;;;;;5002282;28;20052;-69
2024/02/12 06:19:43;;;;;;;3.13;0.90;;;;;;;;;;5026340;28;20088;-66
2024/02/12 06:22:10;;;;;;;5.25;1.10;;;;;;;;;;5020079;28;20034;-66
2024/02/12 06:24:36;;;;;;;4.35;0.80;;;;;;;;;;5024433;28;20034;-68
2024/02/12 06:27:01;;;;;;;8.55;0.90;;;;;;;;;;5025736;28;20037;-67
2024/02/12 06:29:26;;;;;;;5.45;1.10;;;;;;;;;;5026081;28;20095;-67
2024/02/12 06:31:52;;;;;;;5.60;1.10;;;;;;;;;;5025266;28;20052;-65
2024/02/12 06:34:18;;;;;;;4.68;0.80;;;;;;;;;;5027008;28;20037;-64
2024/02/12 06:36:43;;;;;;;2.90;0.88;;;;;;;;;;5025346;28;20033;-68
2024/02/12 06:39:10;;;;;;;4.82;0.88;;;;;;;;;;5023306;28;20116;-70
2024/02/12 06:41:36;;;;;;;4.63;0.80;;;;;;;;;;5022786;28;20049;-70
2024/02/12 06:44:01;;;;;;;5.13;1.13;;;;;;;;;;5022509;28;20037;-67
2024/02/12 06:46:27;;;;;;;5.68;0.80;;;;;;;;;;5020943;28;20117;-69
2024/02/12 06:48:52;;;;;;;7.38;0.90;;;;;;;;;;5019292;28;20038;-69
2024/02/12 06:51:17;;;;;;;6.80;0.98;;;;;;;;;;5021116;28;20465;-67
2024/02/12 06:53:44;;;;;;;4.90;0.93;;;;;;;;;;5018570;28;20045;-67
2024/02/12 06:56:09;;;;;;;4.10;1.05;;;;;;;;;;5025812;28;20526;-69
2024/02/12 06:58:35;;;;;;;8.63;1.10;;;;;;;;;;5017752;28;20146;-68
2024/02/12 07:01:00;;;;;;;7.57;1.27;;;;;;;;;;5025017;28;20124;-69
2024/02/12 07:03:28;;;;;;;4.28;1.20;;;;;;;;;;5022682;28;20053;-70
2024/02/12 07:05:54;;;;;;;3.08;1.02;;;;;;;;;;5022364;28;20423;-71
2024/02/12 07:08:21;;;;;;;6.45;0.90;;;;;;;;;;5020541;28;20038;-70
2024/02/12 07:10:46;;;;;;;3.53;1.02;;;;;;;;;;5025204;28;20570;-71
2024/02/12 07:13:12;;;;;;;4.55;1.05;;;;;;;;;;5015165;28;20037;-70
2024/02/12 07:15:37;;;;;;;5.45;1.17;;;;;;;;;;5023715;28;20037;-74
2024/02/12 07:18:02;;;;;;;4.65;0.93;;;;;;;;;;5016480;28;20057;-71
2024/02/12 07:20:28;;;;;;;7.72;1.25;;;;;;;;;;5024698;28;20798;-71
2024/02/12 07:22:53;;;;;;;4.53;1.30;;;;;;;;;;5026620;28;20029;-71
2024/02/12 07:25:18;;;;;;;4.20;1.20;;;;;;;;;;5019203;28;20141;-69
2024/02/12 07:27:44;;;;;;;3.33;1.10;;;;;;;;;;5020565;28;20144;-70
2024/02/12 07:30:09;;;;;;;5.78;1.30;;;;;;;;;;5019871;28;20041;-73
2024/02/12 07:32:38;;;;;;;4.85;1.25;;;;;;;;;;5005285;28;20512;-71
2024/02/12 07:35:08;;;;;;;2.22;0.80;;;;;;;;;;5020410;28;20022;-69
2024/02/12 07:37:34;;;;;;;2.85;0.65;;;;;;;;;;5026270;28;20424;-75
2024/02/12 07:40:00;;;;;;;2.90;0.85;;;;;;;;;;5018578;28;20068;-70
2024/02/12 07:42:26;;;;;;;5.05;0.98;;;;;;;;;;5004117;28;20095;-69
2024/02/12 07:44:52;;;;;;;4.38;0.80;;;;;;;;;;5015249;28;20547;-70
2024/02/12 07:47:18;;;;;;;2.35;0.80;;;;;;;;;;5027064;28;20030;-69
2024/02/12 07:49:45;;;;;;;2.63;0.68;;;;;;;;;;5018131;28;20039;-70
2024/02/12 07:52:12;;;;;;;7.50;0.95;;;;;;;;;;5026041;28;20045;-69
2024/02/12 07:54:40;;;;;;;2.97;0.60;;;;;;;;;;5022359;28;20388;-69
2024/02/12 07:57:06;;;;;;;1.90;0.77;;;;;;;;;;5021708;28;20029;-69
2024/02/12 07:59:31;;;;;;;5.47;0.85;;;;;;;;;;5022187;28;20038;-69
2024/02/12 08:01:56;;;;;;;3.70;0.98;;;;;;;;;;5023280;28;20077;-69
2024/02/12 08:04:22;;;;;;;4.65;1.00;;;;;;;;;;5019002;28;20044;-69
2024/02/12 08:06:47;;;;;;;2.20;0.70;;;;;;;;;;5031007;28;20116;-72
2024/02/12 08:09:14;;;;;;;2.08;0.82;;;;;;;;;;5017758;28;20032;-71
2024/02/12 08:11:41;;;;;;;5.40;0.85;;;;;;;;;;5024257;28;20037;-71
2024/02/12 08:14:09;;;;;;;2.70;0.75;;;;;;;;;;5018037;28;20038;-72
2024/02/12 08:16:34;;;;;;;2.53;0.82;;;;;;;;;;5022149;28;20029;-70
2024/02/12 08:19:00;;;;;;;4.72;1.10;;;;;;;;;;5018309;28;20060;-71
2024/02/12 08:21:26;;;;;;;2.72;1.08;;;;;;;;;;5021764;28;20450;-71
2024/02/12 08:23:51;;;;;;;2.13;0.88;;;;;;;;;;5016617;28;20041;-71
2024/02/12 08:26:17;;;;;;;2.92;1.10;;;;;;;;;;5026933;28;20152;-71
2024/02/12 08:28:42;;;;;;;4.07;1.25;;;;;;;;;;5023202;28;20496;-70
2024/02/12 08:31:08;;;;;;;3.55;1.00;;;;;;;;;;5019217;28;20044;-71
2024/02/12 08:33:33;;;;;;;2.58;1.10;;;;;;;;;;5015958;28;20041;-69
2024/02/12 08:35:59;;;;;;;2.67;0.90;;;;;;;;;;5017814;28;20036;-69
2024/02/12 08:38:24;;;;;;;3.38;1.02;;;;;;;;;;5024410;28;20041;-69
2024/02/12 08:40:50;;;;;;;4.32;1.13;;;;;;;;;;5021931;28;20063;-70
2024/02/12 08:43:15;;;;;;;3.30;0.95;;;;;;;;;;5020865;28;20038;-69
2024/02/12 08:45:41;;;;;;;3.15;0.93;;;;;;;;;;5017343;28;20072;-70
2024/02/12 08:48:06;;;;;;;2.72;0.80;;;;;;;;;;5020664;28;20083;-69
2024/02/12 08:50:33;;;;;;;3.72;0.85;;;;;;;;;;5022499;28;20048;-69
2024/02/12 08:52:59;;;;;;;2.95;1.15;;;;;;;;;;5022569;28;20570;-70
2024/02/12 08:55:26;;;;;;;2.67;1.30;;;;;;;;;;5039857;28;20072;-73
2024/02/12 08:57:54;;;;;;;3.20;1.00;;;;;;;;;;5026945;28;20046;-74
2024/02/12 09:00:21;;;;;;;2.88;1.08;;;;;;;;;;5018475;28;20117;-73
2024/02/12 09:02:47;;;;;;;3.75;0.98;;;;;;;;;;5024980;28;20037;-72
2024/02/12 09:05:12;;;;;;;3.85;1.20;;;;;;;;;;5014215;28;20117;-72
2024/02/12 09:07:37;;;;;;;3.50;0.95;;;;;;;;;;5014951;28;20061;-71
2024/02/12 09:10:06;;;;;;;2.30;1.00;;;;;;;;;;5023688;28;20049;-71
2024/02/12 09:12:32;;;;;;;2.97;1.00;;;;;;;;;;5022287;28;20045;-69
2024/02/12 09:14:57;;;;;;;3.42;1.00;;;;;;;;;;5023639;28;20030;-71
2024/02/12 09:17:23;;;;;;;2.65;1.30;;;;;;;;;;5023266;28;20048;-72
2024/02/12 09:19:48;;;;;;;2.45;0.90;;;;;;;;;;5026879;28;20049;-72
2024/02/12 09:22:13;;;;;;;2.90;0.90;;;;;;;;;;5029065;28;20474;-73
2024/02/12 09:24:41;;;;;;;3.55;0.90;;;;;;;;;;5028283;28;20043;-72
2024/02/12 09:27:07;;;;;;;3.33;1.00;;;;;;;;;;5027812;28;20037;-72
2024/02/12 09:29:33;;;;;;;2.33;0.98;;;;;;;;;;5025368;28;20180;-72
2024/02/12 09:31:58;;;;;;;3.83;0.90;;;;;;;;;;5007846;28;20033;-72
2024/02/12 09:34:23;;;;;;;2.42;0.90;;;;;;;;;;5023469;28;20032;-73
2024/02/12 09:36:49;;;;;;;1.63;0.80;;;;;;;;;;5025820;28;20064;-73
2024/02/12 09:39:15;;;;;;;2.25;0.90;;;;;;;;;;5025731;28;20029;-70
2024/02/12 09:41:44;;;;;;;2.38;1.13;;;;;;;;;;5007820;28;20045;-70
2024/02/12 09:44:09;;;;;;;3.03;1.00;;;;;;;;;;5028699;28;20033;-70
2024/02/12 09:46:36;;;;;;;2.90;0.82;;;;;;;;;;5034020;28;20052;-70
2024/02/12 09:49:03;;;;;;;2.08;1.02;;;;;;;;;;5028462;28;20044;-73
2024/02/12 09:51:28;;;;;;;2.80;0.90;;;;;;;;;;5010343;28;20037;-71
2024/02/12 09:53:55;;;;;;;2.05;0.93;;;;;;;;;;5017181;28;20631;-71
2024/02/12 09:56:22;;;;;;;2.72;0.82;;;;;;;;;;5013813;28;20038;-75
2024/02/12 09:58:47;;;;;;;2.13;0.90;;;;;;;;;;5008316;28;20076;-69
2024/02/12 10:01:12;;;;;;;2.63;1.00;;;;;;;;;;5018092;28;20045;-68
2024/02/12 10:03:38;;;;;;;2.63;0.80;;;;;;;;;;5022307;28;20034;-69
2024/02/12 10:06:03;;;;;;;2.50;0.95;;;;;;;;;;5034577;28;20025;-70
2024/02/12 10:08:30;;;;;;;2.88;0.80;;;;;;;;;;5010783;28;20442;-69
2024/02/12 10:10:56;;;;;;;1.80;0.90;;;;;;;;;;5024405;28;20029;-67
2024/02/12 10:13:21;;;;;;;2.50;1.25;;;;;;;;;;5027976;28;20087;-68
2024/02/12 10:15:47;;;;;;;3.80;1.10;;;;;;;;;;5024526;28;20091;-68
2024/02/12 10:18:14;;;;;;;2.38;0.98;;;;;;;;;;5020675;28;20542;-69
2024/02/12 10:20:39;;;;;;;3.10;1.10;;;;;;;;;;5025341;28;20037;-69
2024/02/12 10:23:09;;;;;;;2.03;0.80;;;;;;;;;;5000566;28;20068;-70
2024/02/12 10:25:45;;;;;;;1.90;0.77;;;;;;;;;;5022433;28;20047;-68
2024/02/12 10:28:12;;;;;;;1.85;0.90;;;;;;;;;;5017078;28;20466;-70
2024/02/12 10:30:38;;;;;;;3.58;1.40;;;;;;;;;;5022822;28;20116;-69
2024/02/12 10:33:06;;;;;;;4.25;1.15;;;;;;;;;;5020267;28;20022;-68
2024/02/12 10:35:31;;;;;;;2.85;1.00;;;;;;;;;;5018184;28;20168;-67
2024/02/12 10:37:57;;;;;;;3.42;1.25;;;;;;;;;;5001065;28;20069;-69
2024/02/12 10:40:26;;;;;;;2.88;1.10;;;;;;;;;;5008178;28;20029;-69
2024/02/12 10:42:52;;;;;;;3.80;1.27;;;;;;;;;;5026544;28;20047;-69
2024/02/12 10:45:18;;;;;;;2.38;1.05;;;;;;;;;;5008578;28;20127;-68
2024/02/12 10:47:43;;;;;;;2.40;0.85;;;;;;;;;;5024481;28;20977;-70
2024/02/12 10:50:11;;;;;;;2.90;1.20;;;;;;;;;;5024508;28;20040;-69
2024/02/12 10:52:40;;;;;;;3.00;0.75;;;;;;;;;;5020986;28;20049;-70
2024/02/12 10:55:09;;;;;;;3.30;1.10;;;;;;;;;;5007956;28;20701;-69
2024/02/12 10:57:34;;;;;;;4.20;1.10;;;;;;;;;;5010931;28;20041;-66
2024/02/12 11:00:00;;;;;;;2.05;0.80;;;;;;;;;;5025492;28;20301;-67
2024/02/12 11:02:25;;;;;;;2.72;0.85;;;;;;;;;;5020437;28;20124;-68
2024/02/12 11:05:01;;;;;;;3.17;1.02;;;;;;;;;;5017021;28;20037;-72
2024/02/12 11:07:28;;;;;;;2.70;0.95;;;;;;;;;;5024941;28;20044;-68
2024/02/12 11:10:03;;;;;;;1.95;0.75;;;;;;;;;;5023388;28;20033;-70
2024/02/12 11:12:29;;;;;;;3.40;0.80;;;;;;;;;;5037213;28;20042;-69
2024/02/12 11:14:57;;;;;;;2.25;0.90;;;;;;;;;;5005323;28;20038;-71
2024/02/12 11:17:23;;;;;;;2.22;0.90;;;;;;;;;;5018160;28;20534;-68
2024/02/12 11:19:51;;;;;;;2.47;0.80;;;;;;;;;;5004866;28;20033;-67
2024/02/12 11:22:29;;;;;;;3.05;0.93;;;;;;;;;;5024141;28;20033;-69
2024/02/12 11:24:59;;;;;;;3.20;1.10;;;;;;;;;;5024624;28;20035;-69
2024/02/12 11:27:27;;;;;;;2.75;0.80;;;;;;;;;;5022157;28;20045;-68
2024/02/12 11:29:52;;;;;;;3.25;1.00;;;;;;;;;;5011359;28;20131;-69
2024/02/12 11:32:22;;;;;;;5.50;1.20;;;;;;;;;;5002240;28;20338;-69
2024/02/12 11:34:47;;;;;;;2.33;0.70;;;;;;;;;;5023934;28;20037;-69
2024/02/12 11:37:16;;;;;;;1.88;0.70;;;;;;;;;;5015676;28;20049;-69
2024/02/12 11:39:42;;;;;;;1.67;0.70;;;;;;;;;;5024345;28;20041;-69
2024/02/12 11:42:09;;;;;;;2.53;0.90;;;;;;;;;;5022239;28;20032;-69
2024/02/12 11:44:35;;;;;;;2.10;0.80;;;;;;;;;;5022509;28;20426;-69
2024/02/12 11:47:00;;;;;;;3.17;0.90;;;;;;;;;;5024933;28;20033;-71
2024/02/12 11:49:25;;;;;;;2.20;0.80;;;;;;;;;;5017425;28;20551;-71
2024/02/12 11:51:51;;;;;;;2.72;1.02;;;;;;;;;;5022461;28;20037;-72
2024/02/12 11:54:17;;;;;;;1.98;0.85;;;;;;;;;;5026316;28;20048;-69
2024/02/12 11:56:45;;;;;;;3.25;0.80;;;;;;;;;;5024381;28;20037;-72
2024/02/12 11:59:10;;;;;;;2.50;0.80;;;;;;;;;;5008927;28;20056;-72
2024/02/12 12:01:37;;;;;;;1.95;0.73;;;;;;;;;;5022983;28;20664;-72
2024/02/12 12:04:03;;;;;;;2.60;0.73;;;;;;;;;;5008525;28;20072;-74
2024/02/12 12:06:33;;;;;;;2.47;0.82;;;;;;;;;;5025621;28;20183;-72
2024/02/12 12:08:58;;;;;;;2.33;0.68;;;;;;;;;;5024874;28;20041;-72
2024/02/12 12:11:23;;;;;;;2.40;0.52;;;;;;;;;;5021977;28;20092;-71
2024/02/12 12:13:59;;;;;;;3.53;0.93;;;;;;;;;;5021589;28;20463;-70
2024/02/12 12:16:24;;;;;;;3.45;0.70;;;;;;;;;;5014485;28;20129;-69
2024/02/12 12:18:50;;;;;;;1.92;0.90;;;;;;;;;;5017402;28;20153;-70
2024/02/12 12:21:21;;;;;;;3.22;0.70;;;;;;;;;;5023287;28;20043;-70
2024/02/12 12:23:46;;;;;;;2.03;0.77;;;;;;;;;;5021876;28;20528;-69
2024/02/12 12:26:14;;;;;;;1.67;0.65;;;;;;;;;;5023557;28;20060;-71
2024/02/12 12:28:39;;;;;;;3.00;0.98;;;;;;;;;;5020994;28;20080;-73
2024/02/12 12:31:07;;;;;;;3.03;0.70;;;;;;;;;;5005054;28;20025;-74
2024/02/12 12:33:32;;;;;;;2.45;0.75;;;;;;;;;;5021158;28;20040;-72
2024/02/12 12:35:58;;;;;;;3.20;0.93;;;;;;;;;;5017408;28;20407;-73
2024/02/12 12:38:23;;;;;;;2.15;0.80;;;;;;;;;;5025960;28;20033;-71
2024/02/12 12:40:49;;;;;;;3.28;0.90;;;;;;;;;;5018174;28;20121;-72
2024/02/12 12:43:16;;;;;;;3.85;1.00;;;;;;;;;;5032599;28;20022;-67
2024/02/12 12:45:41;;;;;;;3.45;0.75;;;;;;;;;;5022665;28;20025;-71
2024/02/12 12:48:09;;;;;;;3.08;1.10;;;;;;;;;;5026467;28;20036;-74
2024/02/12 12:50:34;;;;;;;2.13;0.75;;;;;;;;;;5026461;28;20022;-73
2024/02/12 12:53:00;;;;;;;2.58;0.85;;;;;;;;;;5022921;28;20037;-73
2024/02/12 12:55:25;;;;;;;2.70;0.70;;;;;;;;;;5023683;28;20036;-73
2024/02/12 12:57:52;;;;;;;2.25;0.77;;;;;;;;;;5021265;28;20503;-75
2024/02/12 13:00:28;;;;;;;3.30;0.80;;;;;;;;;;5025182;28;20033;-72
2024/02/12 13:02:54;;;;;;;3.50;1.00;;;;;;;;;;5028002;28;20029;-73
2024/02/12 13:05:20;;;;;;;3.03;0.80;;;;;;;;;;5033544;28;20391;-69
2024/02/12 13:07:46;;;;;;;4.75;0.88;;;;;;;;;;5019452;28;20037;-68
2024/02/12 13:10:11;;;;;;;2.75;0.80;;;;;;;;;;5028307;28;20034;-71
2024/02/12 13:12:38;;;;;;;5.40;1.00;;;;;;;;;;5027686;28;20034;-70
2024/02/12 13:15:08;;;;;;;4.55;1.00;;;;;;;;;;5029446;28;20041;-73
2024/02/12 13:17:34;;;;;;;5.72;0.90;;;;;;;;;;5009583;28;20125;-70
2024/02/12 13:19:59;;;;;;;5.43;1.00;;;;;;;;;;5029214;28;20414;-71
2024/02/12 13:22:24;;;;;;;5.85;1.20;;;;;;;;;;5027884;28;20030;-72
2024/02/12 13:24:50;;;;;;;7.95;1.02;;;;;;;;;;5031700;28;20040;-75
2024/02/12 13:27:16;;;;;;;4.85;1.10;;;;;;;;;;5029649;28;20041;-71
2024/02/12 13:29:41;;;;;;;8.25;1.30;;;;;;;;;;5028866;28;20051;-73
2024/02/12 13:32:10;;;;;;;6.03;1.00;;;;;;;;;;5026858;28;20049;-68
2024/02/12 13:34:36;;;;;;;6.70;0.95;;;;;;;;;;5026705;28;20032;-72
2024/02/12 13:37:01;;;;;;;5.47;0.90;;;;;;;;;;5023520;28;20538;-72
2024/02/12 13:39:27;;;;;;;7.47;0.95;;;;;;;;;;5026683;28;20045;-72
2024/02/12 13:41:53;;;;;;;6.95;0.88;;;;;;;;;;5026183;28;20037;-75
2024/02/12 13:44:18;;;;;;;4.53;0.80;;;;;;;;;;5027725;28;20120;-73
2024/02/12 13:46:44;;;;;;;4.88;0.88;;;;;;;;;;5027739;28;20036;-73
2024/02/12 13:49:09;;;;;;;6.88;1.08;;;;;;;;;;5028763;28;20109;-74
2024/02/12 13:51:37;;;;;;;5.55;0.93;;;;;;;;;;5011351;28;20073;-70
2024/02/12 13:54:04;;;;;;;6.63;1.45;;;;;;;;;;5027689;28;20037;-73
2024/02/12 13:56:29;;;;;;;6.40;0.95;;;;;;;;;;5029114;28;20025;-70
2024/02/12 13:59:01;;;;;;;7.97;1.10;;;;;;;;;;5026989;28;20534;-70
2024/02/12 14:01:30;;;;;;;7.55;1.20;;;;;;;;;;5008781;28;20042;-72
2024/02/12 14:03:56;;;;;;;6.47;1.23;;;;;;;;;;5019848;28;20119;-70
2024/02/12 14:06:21;;;;;;;7.05;0.93;;;;;;;;;;5026686;28;20037;-71
2024/02/12 14:08:46;;;;;;;7.55;1.15;;;;;;;;;;5024601;28;20071;-72
2024/02/12 14:11:12;;;;;;;4.75;0.57;;;;;;;;;;5028058;28;20041;-68
2024/02/12 14:13:37;;;;;;;5.35;0.90;;;;;;;;;;5025821;28;20033;-68
2024/02/12 14:16:05;;;;;;;6.90;1.02;;;;;;;;;;5027851;28;20041;-69
2024/02/12 14:18:30;;;;;;;4.97;0.88;;;;;;;;;;5027566;28;20045;-73
2024/02/12 14:20:55;;;;;;;6.63;0.80;;;;;;;;;;5022909;28;20045;-70
2024/02/12 14:23:21;;;;;;;7.35;1.05;;;;;;;;;;5026691;28;20076;-70
2024/02/12 14:25:47;;;;;;;5.97;0.82;;;;;;;;;;5012524;28;20050;-68
2024/02/12 14:28:13;;;;;;;4.28;0.75;;;;;;;;;;5025127;28;20048;-69
2024/02/12 14:30:39;;;;;;;4.90;0.75;;;;;;;;;;5003364;28;20029;-67
2024/02/12 14:33:06;;;;;;;4.38;0.70;;;;;;;;;;5025859;28;20026;-70
2024/02/12 14:35:36;;;;;;;5.57;1.00;;;;;;;;;;5027045;28;20424;-70
2024/02/12 14:38:01;;;;;;;6.68;1.00;;;;;;;;;;5027327;28;20056;-70
2024/02/12 14:40:26;;;;;;;5.00;0.77;;;;;;;;;;5028195;28;20112;-68
2024/02/12 14:42:53;;;;;;;4.18;0.80;;;;;;;;;;5026868;28;20033;-71
2024/02/12 14:45:21;;;;;;;4.53;0.63;;;;;;;;;;5027462;28;20053;-69
2024/02/12 14:47:46;;;;;;;4.28;1.00;;;;;;;;;;5005746;28;20219;-71
2024/02/12 14:50:12;;;;;;;2.92;0.77;;;;;;;;;;5027913;28;20471;-70
2024/02/12 14:52:42;;;;;;;4.35;0.73;;;;;;;;;;5027086;28;20834;-70